createdAt,value
2018-04-27T00:02:12.588Z,2.40
2018-04-27T00:04:40.887Z,2.40
2018-04-27T00:07:09.121Z,2.33
2018-04-27T00:09:38.147Z,4.53
2018-04-27T00:12:06.385Z,2.27
2018-04-27T00:14:34.653Z,1.73
2018-04-27T00:17:02.893Z,2.20
2018-04-27T00:19:31.148Z,1.80
2018-04-27T00:21:59.449Z,2.17
2018-04-27T00:24:27.724Z,1.93
2018-04-27T00:26:55.992Z,1.93
2018-04-27T00:29:24.288Z,2.47
2018-04-27T00:31:52.532Z,2.60
2018-04-27T00:34:21.673Z,2.90
2018-04-27T00:36:49.899Z,2.67
2018-04-27T00:39:18.921Z,3.10
2018-04-27T00:41:47.160Z,8.40
2018-04-27T00:44:15.420Z,5.60
2018-04-27T00:46:43.771Z,3.77
2018-04-27T00:49:12.056Z,2.37
2018-04-27T00:51:40.332Z,2.20
2018-04-27T00:54:08.613Z,2.53
2018-04-27T00:56:36.848Z,2.43
2018-04-27T00:59:05.876Z,4.00
2018-04-27T01:01:34.111Z,3.50
2018-04-27T01:04:02.368Z,3.00
2018-04-27T01:06:30.642Z,2.40
2018-04-27T01:08:58.892Z,6.00
2018-04-27T01:11:27.133Z,4.77
2018-04-27T01:13:55.478Z,5.37
2018-04-27T01:16:23.713Z,4.20
2018-04-27T01:18:51.980Z,3.50
2018-04-27T01:21:20.216Z,2.80
2018-04-27T01:23:48.484Z,2.87
2018-04-27T01:26:16.788Z,2.40
2018-04-27T01:28:45.063Z,2.87
2018-04-27T01:31:13.296Z,2.17
2018-04-27T01:33:42.444Z,2.33
2018-04-27T01:36:10.687Z,2.17
2018-04-27T01:38:39.712Z,2.40
2018-04-27T01:41:07.997Z,2.30
2018-04-27T01:43:36.276Z,2.23
2018-04-27T01:46:05.463Z,2.40
2018-04-27T01:48:33.759Z,2.80
2018-04-27T01:51:02.006Z,2.13
2018-04-27T01:53:31.051Z,2.60
2018-04-27T01:56:00.106Z,2.57
2018-04-27T01:58:29.856Z,2.90
2018-04-27T02:00:58.095Z,2.80
2018-04-27T02:03:27.135Z,2.73
2018-04-27T02:05:55.416Z,2.70
2018-04-27T02:08:23.665Z,2.57
2018-04-27T02:10:52.687Z,2.53
2018-04-27T02:13:20.929Z,3.20
2018-04-27T02:15:49.947Z,2.90
2018-04-27T02:18:18.954Z,3.10
2018-04-27T02:20:47.224Z,2.60
2018-04-27T02:23:16.231Z,2.97
2018-04-27T02:25:44.492Z,2.40
2018-04-27T02:28:13.505Z,2.17
2018-04-27T02:30:41.815Z,3.00
2018-04-27T02:33:10.054Z,2.07
2018-04-27T02:35:39.085Z,2.37
2018-04-27T02:38:07.324Z,2.47
2018-04-27T02:40:36.365Z,2.63
2018-04-27T02:43:04.597Z,2.90
2018-04-27T02:45:33.615Z,3.00
2018-04-27T02:48:01.846Z,3.07
2018-04-27T02:50:30.092Z,4.30
2018-04-27T02:52:58.338Z,2.90
2018-04-27T02:55:27.368Z,2.80
2018-04-27T02:57:55.601Z,2.63
2018-04-27T03:00:24.646Z,3.30
2018-04-27T03:02:52.889Z,2.80
2018-04-27T03:05:21.907Z,2.70
2018-04-27T03:07:50.158Z,2.83
2018-04-27T03:10:19.182Z,2.57
2018-04-27T03:12:48.215Z,2.83
2018-04-27T03:15:16.965Z,2.80
2018-04-27T03:17:45.996Z,2.83
2018-04-27T03:20:14.252Z,2.93
2018-04-27T03:22:43.252Z,2.53
2018-04-27T03:25:11.508Z,2.97
2018-04-27T03:27:40.532Z,3.30
2018-04-27T03:30:08.786Z,2.47
2018-04-27T03:32:37.804Z,2.80
2018-04-27T03:35:06.059Z,2.47
2018-04-27T03:37:35.309Z,1.97
2018-04-27T03:40:03.630Z,2.03
2018-04-27T03:42:31.840Z,2.30
2018-04-27T03:45:00.281Z,2.57
2018-04-27T03:47:28.571Z,2.77
2018-04-27T03:49:56.797Z,3.30
2018-04-27T03:52:25.036Z,2.40
2018-04-27T03:54:53.291Z,2.10
2018-04-27T03:57:21.559Z,2.40
2018-04-27T04:00:01.672Z,1.90
2018-04-27T04:02:42.722Z,2.67
2018-04-27T04:05:17.867Z,2.10
2018-04-27T04:07:46.208Z,2.07
2018-04-27T04:10:14.513Z,2.10
2018-04-27T04:12:42.780Z,2.30
2018-04-27T04:15:11.025Z,2.30
2018-04-27T04:17:40.052Z,1.97
2018-04-27T04:20:08.301Z,2.77
2018-04-27T04:22:37.316Z,2.33
2018-04-27T04:25:05.579Z,2.60
2018-04-27T04:27:34.586Z,3.03
2018-04-27T04:30:03.748Z,2.90
2018-04-27T04:32:31.963Z,2.97
2018-04-27T04:35:00.229Z,2.50
2018-04-27T04:37:29.265Z,3.10
2018-04-27T04:39:57.550Z,2.87
2018-04-27T04:42:25.788Z,2.40
2018-04-27T04:44:54.871Z,2.83
2018-04-27T04:47:23.082Z,3.07
2018-04-27T04:49:52.103Z,2.90
2018-04-27T04:52:20.360Z,3.33
2018-04-27T04:54:49.424Z,2.97
2018-04-27T04:57:17.640Z,3.50
2018-04-27T04:59:45.915Z,3.37
2018-04-27T05:02:14.978Z,3.10
2018-04-27T05:04:43.241Z,3.70
2018-04-27T05:07:11.563Z,3.40
2018-04-27T05:09:39.805Z,3.83
2018-04-27T05:12:08.895Z,3.20
2018-04-27T05:14:37.144Z,4.13
2018-04-27T05:17:05.487Z,3.80
2018-04-27T05:19:33.721Z,4.10
2018-04-27T05:22:02.013Z,4.00
2018-04-27T05:24:30.274Z,4.00
2018-04-27T05:26:58.585Z,4.00
2018-04-27T05:29:26.848Z,4.30
2018-04-27T05:31:55.120Z,4.20
2018-04-27T05:34:23.389Z,4.60
2018-04-27T05:36:51.715Z,4.50
2018-04-27T05:39:20.010Z,4.53
2018-04-27T05:41:48.356Z,4.90
2018-04-27T05:44:16.657Z,4.70
2018-04-27T05:46:44.940Z,6.07
2018-04-27T05:49:14.387Z,4.97
2018-04-27T05:51:42.647Z,4.47
2018-04-27T05:54:10.926Z,5.10
2018-04-27T05:56:39.266Z,4.97
2018-04-27T05:59:07.579Z,5.53
2018-04-27T06:01:35.845Z,7.20
2018-04-27T06:04:12.113Z,4.80
2018-04-27T06:06:40.377Z,4.93
2018-04-27T06:09:08.632Z,5.20
2018-04-27T06:11:37.667Z,5.53
2018-04-27T06:14:05.917Z,5.60
2018-04-27T06:16:34.938Z,4.83
2018-04-27T06:19:03.262Z,4.63
2018-04-27T06:21:31.531Z,5.60
2018-04-27T06:23:59.800Z,4.70
2018-04-27T06:26:28.076Z,5.10
2018-04-27T06:28:56.322Z,6.00
2018-04-27T06:31:24.608Z,4.80
2018-04-27T06:33:52.943Z,7.33
2018-04-27T06:36:21.201Z,5.50
2018-04-27T06:38:49.494Z,5.47
2018-04-27T06:41:17.775Z,5.03
2018-04-27T06:43:46.211Z,6.23
2018-04-27T06:46:14.541Z,5.40
2018-04-27T06:48:42.809Z,5.47
2018-04-27T06:51:11.201Z,6.00
2018-04-27T06:53:39.459Z,5.17
2018-04-27T06:56:07.727Z,5.40
2018-04-27T06:58:36.416Z,5.27
2018-04-27T07:01:05.547Z,4.80
2018-04-27T07:03:33.801Z,5.53
2018-04-27T07:06:02.075Z,5.37
2018-04-27T07:08:31.081Z,6.20
2018-04-27T07:10:59.386Z,5.37
2018-04-27T07:13:27.660Z,5.43
2018-04-27T07:15:55.931Z,5.63
2018-04-27T07:18:24.181Z,4.60
2018-04-27T07:20:53.220Z,5.57
2018-04-27T07:23:21.467Z,5.53
2018-04-27T07:25:50.525Z,5.20
2018-04-27T07:28:18.784Z,5.30
2018-04-27T07:30:47.047Z,5.90
2018-04-27T07:33:15.288Z,4.90
2018-04-27T07:35:43.573Z,5.90
2018-04-27T07:38:11.889Z,5.03
2018-04-27T07:40:40.150Z,4.90
2018-04-27T07:43:09.193Z,5.30
2018-04-27T07:45:37.480Z,5.30
2018-04-27T07:48:05.742Z,5.57
2018-04-27T07:50:34.041Z,4.93
2018-04-27T07:53:02.301Z,5.70
2018-04-27T07:55:30.602Z,4.57
2018-04-27T07:57:58.885Z,4.63
2018-04-27T08:00:27.136Z,5.30
2018-04-27T08:02:55.421Z,5.60
2018-04-27T08:05:23.669Z,5.00
2018-04-27T08:07:51.933Z,5.00
2018-04-27T08:10:20.180Z,4.87
2018-04-27T08:12:48.460Z,4.57
2018-04-27T08:15:16.741Z,4.87
2018-04-27T08:17:45.283Z,4.50
2018-04-27T08:20:13.948Z,5.60
2018-04-27T08:22:42.510Z,4.90
2018-04-27T08:25:10.995Z,4.90
2018-04-27T08:27:39.655Z,4.70
2018-04-27T08:30:08.349Z,5.80
2018-04-27T08:32:36.682Z,5.53
2018-04-27T08:35:06.469Z,5.57
2018-04-27T08:37:34.757Z,5.10
2018-04-27T08:40:03.029Z,4.90
2018-04-27T08:42:31.341Z,4.90
2018-04-27T08:44:59.580Z,4.50
2018-04-27T08:47:27.886Z,5.10
2018-04-27T08:49:56.138Z,4.70
2018-04-27T08:52:24.386Z,4.73
2018-04-27T08:54:53.435Z,3.67
2018-04-27T08:57:21.689Z,4.40
2018-04-27T08:59:49.944Z,4.00
2018-04-27T09:02:18.202Z,4.23
2018-04-27T09:04:46.448Z,3.70
2018-04-27T09:07:14.711Z,3.47
2018-04-27T09:09:42.949Z,3.97
2018-04-27T09:12:11.225Z,3.50
2018-04-27T09:14:39.471Z,3.80
2018-04-27T09:17:07.725Z,3.70
2018-04-27T09:19:36.741Z,4.00
2018-04-27T09:22:05.000Z,3.57
2018-04-27T09:24:34.011Z,3.70
2018-04-27T09:27:02.287Z,3.60
2018-04-27T09:29:31.286Z,4.00
2018-04-27T09:32:00.307Z,3.30
2018-04-27T09:34:28.536Z,3.10
2018-04-27T09:36:56.797Z,4.00
2018-04-27T09:39:25.052Z,3.93
2018-04-27T09:41:53.364Z,3.73
2018-04-27T09:44:22.353Z,2.50
2018-04-27T09:46:50.621Z,3.40
2018-04-27T09:49:18.869Z,2.70
2018-04-27T09:51:47.137Z,2.30
2018-04-27T09:54:16.978Z,2.70
2018-04-27T09:56:45.293Z,2.70
2018-04-27T09:59:13.545Z,2.60
2018-04-27T10:01:41.784Z,2.17
2018-04-27T10:04:10.801Z,2.50
2018-04-27T10:06:39.048Z,2.17
2018-04-27T10:09:07.395Z,2.30
2018-04-27T10:11:35.667Z,2.50
2018-04-27T10:14:03.926Z,2.67
2018-04-27T10:16:32.270Z,2.17
2018-04-27T10:19:00.517Z,2.20
2018-04-27T10:21:28.784Z,2.60
2018-04-27T10:23:57.062Z,2.33
2018-04-27T10:26:25.355Z,3.00
2018-04-27T10:28:53.605Z,2.20
2018-04-27T10:31:21.846Z,2.50
2018-04-27T10:33:50.180Z,2.77
2018-04-27T10:36:18.421Z,2.47
2018-04-27T10:38:47.564Z,2.90
2018-04-27T10:41:15.853Z,2.80
2018-04-27T10:43:44.096Z,3.10
2018-04-27T10:46:12.347Z,2.53
2018-04-27T10:48:40.673Z,2.37
2018-04-27T10:51:08.924Z,2.17
2018-04-27T10:53:37.213Z,2.33
2018-04-27T10:56:06.287Z,2.00
2018-04-27T10:58:34.482Z,2.40
2018-04-27T11:01:03.520Z,1.70
2018-04-27T11:03:31.790Z,1.97
2018-04-27T11:06:00.052Z,1.63
2018-04-27T11:08:28.288Z,1.90
2018-04-27T11:10:56.707Z,2.17
2018-04-27T11:13:24.881Z,1.63
2018-04-27T11:15:54.005Z,2.43
2018-04-27T11:18:22.244Z,2.33
2018-04-27T11:20:51.632Z,2.00
2018-04-27T11:23:19.933Z,1.80
2018-04-27T11:25:49.421Z,2.43
2018-04-27T11:28:18.110Z,2.13
2018-04-27T11:30:46.681Z,1.90
2018-04-27T11:33:15.285Z,1.93
2018-04-27T11:35:43.898Z,1.90
2018-04-27T11:38:12.353Z,1.80
2018-04-27T11:40:41.621Z,2.20
2018-04-27T11:43:10.036Z,1.90
2018-04-27T11:45:38.621Z,1.70
2018-04-27T11:48:07.516Z,1.90
2018-04-27T11:50:35.807Z,2.20
2018-04-27T11:53:04.143Z,2.50
2018-04-27T11:55:32.371Z,2.33
2018-04-27T11:58:01.414Z,2.20
2018-04-27T12:00:29.650Z,2.07
2018-04-27T12:02:58.677Z,1.90
2018-04-27T12:05:26.917Z,2.90
2018-04-27T12:07:55.177Z,1.90
2018-04-27T12:10:23.437Z,2.17
2018-04-27T12:12:51.695Z,2.47
2018-04-27T12:15:19.967Z,2.10
2018-04-27T12:17:48.481Z,2.63
2018-04-27T12:20:16.902Z,2.80
2018-04-27T12:22:46.292Z,2.37
2018-04-27T12:25:16.825Z,2.60
2018-04-27T12:27:45.136Z,2.47
2018-04-27T12:30:14.154Z,2.70
2018-04-27T12:32:42.414Z,2.23
2018-04-27T12:35:11.432Z,2.83
2018-04-27T12:37:39.754Z,2.97
2018-04-27T12:40:07.977Z,2.27
2018-04-27T12:42:36.281Z,2.47
2018-04-27T12:45:04.666Z,2.13
2018-04-27T12:47:32.954Z,2.60
2018-04-27T12:50:01.225Z,2.10
2018-04-27T12:52:29.489Z,2.67
2018-04-27T12:54:57.789Z,2.20
2018-04-27T12:57:26.047Z,2.63
2018-04-27T12:59:54.290Z,2.37
2018-04-27T13:02:23.312Z,2.60
2018-04-27T13:04:51.564Z,2.20
2018-04-27T13:07:20.609Z,2.53
2018-04-27T13:09:48.924Z,2.57
2018-04-27T13:12:17.885Z,2.23
2018-04-27T13:14:46.165Z,2.00
2018-04-27T13:17:14.436Z,1.90
2018-04-27T13:19:42.677Z,2.37
2018-04-27T13:22:11.696Z,2.27
2018-04-27T13:24:39.944Z,2.00
2018-04-27T13:27:08.970Z,2.27
2018-04-27T13:29:37.261Z,2.60
2018-04-27T13:32:05.583Z,2.70
2018-04-27T13:34:33.965Z,2.07
2018-04-27T13:37:02.106Z,2.30
2018-04-27T13:39:30.352Z,1.90
2018-04-27T13:41:58.664Z,2.47
2018-04-27T13:44:26.911Z,2.30
2018-04-27T13:46:55.945Z,2.50
2018-04-27T13:49:24.181Z,2.43
2018-04-27T13:51:53.280Z,2.50
2018-04-27T13:54:21.493Z,2.53
2018-04-27T13:56:49.810Z,1.80
2018-04-27T13:59:18.153Z,2.80
2018-04-27T14:01:46.450Z,2.17
2018-04-27T14:04:14.721Z,2.47
2018-04-27T14:06:43.013Z,2.43
2018-04-27T14:09:11.378Z,2.27
2018-04-27T14:11:39.626Z,2.47
2018-04-27T14:14:08.646Z,2.77
2018-04-27T14:16:36.935Z,2.47
2018-04-27T14:19:05.193Z,2.20
2018-04-27T14:21:33.518Z,2.80
2018-04-27T14:24:01.756Z,2.60
2018-04-27T14:26:30.005Z,2.80
2018-04-27T14:28:59.040Z,2.20
2018-04-27T14:31:27.338Z,2.50
2018-04-27T14:33:55.613Z,2.07
2018-04-27T14:36:23.888Z,2.33
2018-04-27T14:38:52.156Z,2.13
2018-04-27T14:41:20.391Z,2.30
2018-04-27T14:43:49.422Z,2.13
2018-04-27T14:46:17.671Z,1.90
2018-04-27T14:48:46.814Z,2.20
2018-04-27T14:51:15.070Z,1.63
2018-04-27T14:53:43.331Z,3.47
2018-04-27T14:56:12.335Z,2.07
2018-04-27T14:58:41.368Z,1.90
2018-04-27T15:01:09.679Z,2.10
2018-04-27T15:03:37.925Z,2.70
2018-04-27T15:06:06.219Z,1.83
2018-04-27T15:08:34.602Z,2.10
2018-04-27T15:11:02.899Z,2.17
2018-04-27T15:13:31.175Z,2.10
2018-04-27T15:15:59.433Z,2.30
2018-04-27T15:18:27.742Z,1.93
2018-04-27T15:20:55.945Z,2.10
2018-04-27T15:23:24.963Z,2.70
2018-04-27T15:25:53.203Z,2.50
2018-04-27T15:28:22.318Z,1.80
2018-04-27T15:30:50.510Z,2.20
2018-04-27T15:33:18.772Z,2.63
2018-04-27T15:35:47.789Z,1.90
2018-04-27T15:38:16.058Z,1.90
2018-04-27T15:40:45.070Z,1.50
2018-04-27T15:43:13.360Z,1.70
2018-04-27T15:45:41.658Z,1.53
2018-04-27T15:48:09.924Z,2.10
2018-04-27T15:50:38.205Z,1.90
2018-04-27T15:53:06.487Z,1.60
2018-04-27T15:55:34.800Z,1.80
2018-04-27T15:58:03.039Z,1.80
2018-04-27T16:00:31.292Z,1.60
2018-04-27T16:03:00.329Z,1.80
2018-04-27T16:05:28.615Z,2.20
2018-04-27T16:07:56.879Z,2.03
2018-04-27T16:10:25.139Z,1.70
2018-04-27T16:12:53.443Z,1.93
2018-04-27T16:15:21.860Z,1.90
2018-04-27T16:17:50.109Z,2.20
2018-04-27T16:20:18.364Z,1.53
2018-04-27T16:22:47.471Z,1.57
2018-04-27T16:25:15.726Z,1.80
2018-04-27T16:27:44.375Z,2.90
2018-04-27T16:30:12.627Z,2.13
2018-04-27T16:32:40.888Z,2.20
2018-04-27T16:35:09.130Z,1.80
2018-04-27T16:37:37.404Z,2.27
2018-04-27T16:40:05.647Z,3.10
2018-04-27T16:42:33.919Z,2.13
2018-04-27T16:45:02.174Z,18.20
2018-04-27T16:47:30.430Z,2.27
2018-04-27T16:49:59.480Z,2.07
2018-04-27T16:52:27.738Z,2.30
2018-04-27T16:54:55.980Z,2.60
2018-04-27T16:57:24.226Z,2.10
2018-04-27T16:59:52.489Z,1.97
2018-04-27T17:02:20.732Z,1.73
2018-04-27T17:04:49.868Z,2.20
2018-04-27T17:07:18.125Z,2.10
2018-04-27T17:09:46.433Z,1.90
2018-04-27T17:12:14.673Z,1.70
2018-04-27T17:14:42.934Z,1.70
2018-04-27T17:17:11.997Z,2.80
2018-04-27T17:19:40.271Z,1.67
2018-04-27T17:22:08.522Z,1.63
2018-04-27T17:24:36.789Z,1.70
2018-04-27T17:27:05.829Z,1.60
2018-04-27T17:29:34.088Z,1.70
2018-04-27T17:32:02.339Z,1.70
2018-04-27T17:34:31.371Z,1.87
2018-04-27T17:37:00.822Z,1.47
2018-04-27T17:39:29.030Z,1.70
2018-04-27T17:41:57.269Z,1.90
2018-04-27T17:44:25.543Z,1.83
2018-04-27T17:46:54.747Z,1.80
2018-04-27T17:49:22.996Z,1.83
2018-04-27T17:51:51.246Z,1.70
2018-04-27T17:54:19.501Z,2.00
2018-04-27T17:56:48.529Z,2.23
2018-04-27T17:59:16.783Z,2.30
2018-04-27T18:01:45.812Z,1.80
2018-04-27T18:04:14.076Z,2.97
2018-04-27T18:06:42.480Z,11.40
2018-04-27T18:09:11.063Z,6.40
2018-04-27T18:11:39.422Z,2.73
2018-04-27T18:14:08.358Z,2.00
2018-04-27T18:16:36.679Z,1.77
2018-04-27T18:19:04.911Z,2.30
2018-04-27T18:21:33.182Z,3.63
2018-04-27T18:24:01.435Z,2.33
2018-04-27T18:26:29.744Z,5.60
2018-04-27T18:28:58.025Z,5.20
2018-04-27T18:31:26.268Z,3.27
2018-04-27T18:33:54.531Z,2.20
2018-04-27T18:36:23.610Z,2.63
2018-04-27T18:38:51.854Z,2.43
2018-04-27T18:41:21.169Z,2.27
2018-04-27T18:43:49.441Z,2.60
2018-04-27T18:46:17.719Z,2.73
2018-04-27T18:48:45.987Z,3.60
2018-04-27T18:51:14.227Z,3.03
2018-04-27T18:53:42.557Z,2.30
2018-04-27T18:56:10.844Z,3.53
2018-04-27T18:58:43.148Z,2.60
2018-04-27T19:01:14.282Z,2.90
2018-04-27T19:03:42.540Z,2.93
2018-04-27T19:06:10.789Z,3.70
2018-04-27T19:08:39.103Z,2.80
2018-04-27T19:11:07.338Z,2.90
2018-04-27T19:13:37.041Z,3.60
2018-04-27T19:16:06.084Z,3.40
2018-04-27T19:18:34.519Z,4.00
2018-04-27T19:21:03.707Z,3.20
2018-04-27T19:23:38.756Z,3.87
2018-04-27T19:26:07.951Z,4.57
2018-04-27T19:28:36.262Z,3.87
2018-04-27T19:31:05.290Z,3.57
2018-04-27T19:33:33.557Z,4.33
2018-04-27T19:36:01.809Z,3.97
2018-04-27T19:38:30.841Z,3.57
2018-04-27T19:40:59.082Z,3.50
2018-04-27T19:43:28.112Z,4.00
2018-04-27T19:45:56.398Z,4.00
2018-04-27T19:48:24.680Z,3.20
2018-04-27T19:50:52.950Z,3.73
2018-04-27T19:53:21.212Z,3.05
2018-04-27T19:55:49.475Z,3.10
2018-04-27T19:58:18.514Z,2.80
2018-04-27T20:00:46.782Z,3.47
2018-04-27T20:03:15.039Z,3.50
2018-04-27T20:05:44.067Z,3.53
2018-04-27T20:08:12.307Z,3.90
2018-04-27T20:10:44.287Z,4.50
2018-04-27T20:13:19.460Z,5.23
2018-04-27T20:15:48.476Z,4.10
2018-04-27T20:18:22.356Z,4.33
2018-04-27T20:20:50.639Z,5.70
2018-04-27T20:26:16.241Z,4.90
2018-04-27T20:28:45.280Z,5.10
2018-04-27T20:31:13.543Z,6.27
2018-04-27T20:33:42.552Z,5.53
2018-04-27T20:36:10.833Z,5.60
2018-04-27T20:38:39.136Z,6.60
2018-04-27T20:41:10.047Z,7.40
2018-04-27T20:43:38.333Z,7.00
2018-04-27T20:46:06.612Z,6.90
2018-04-27T20:48:34.897Z,5.90
2018-04-27T20:51:05.888Z,6.60
2018-04-27T20:56:47.825Z,7.20
2018-04-27T20:59:16.151Z,6.30
2018-04-27T21:01:44.416Z,7.13
2018-04-27T21:04:12.677Z,6.60
2018-04-27T21:06:40.930Z,7.20
2018-04-27T21:09:09.974Z,7.90
2018-04-27T21:11:38.221Z,8.97
2018-04-27T21:14:06.578Z,8.63
2018-04-27T21:16:34.784Z,7.10
2018-04-27T21:19:03.037Z,6.87
2018-04-27T21:21:32.056Z,6.20
2018-04-27T21:24:00.302Z,5.93
2018-04-27T21:26:31.506Z,7.23
2018-04-27T21:28:59.789Z,7.30
2018-04-27T21:31:28.067Z,8.40
2018-04-27T21:33:56.965Z,12.23
2018-04-27T21:36:28.992Z,12.40
2018-04-27T21:39:13.609Z,12.80
2018-04-27T21:41:44.857Z,9.97
2018-04-27T21:44:13.888Z,10.33
2018-04-27T21:46:42.220Z,10.37
2018-04-27T21:49:13.884Z,9.57
2018-04-27T21:51:50.520Z,9.77
2018-04-27T21:54:22.009Z,9.80
2018-04-27T21:56:57.968Z,9.20
2018-04-27T21:59:32.154Z,8.03
2018-04-27T22:02:01.169Z,8.37
2018-04-27T22:04:29.428Z,9.77
2018-04-27T22:06:58.457Z,9.10
2018-04-27T22:09:27.565Z,8.47
2018-04-27T22:11:55.974Z,8.57
2018-04-27T22:14:36.058Z,8.10
2018-04-27T22:20:03.484Z,12.23
2018-04-27T22:22:31.780Z,9.90
2018-04-27T22:25:06.901Z,9.40
2018-04-27T22:27:35.197Z,5.83
2018-04-27T22:30:03.433Z,6.03
2018-04-27T22:32:36.049Z,7.30
2018-04-27T22:35:05.136Z,5.00
2018-04-27T22:37:38.030Z,6.13
2018-04-27T22:40:07.054Z,4.67
2018-04-27T22:42:41.915Z,6.37
2018-04-27T22:45:11.200Z,5.63
2018-04-27T22:50:34.005Z,4.87
2018-04-27T22:53:04.984Z,12.80
2018-04-27T22:55:33.361Z,6.37
2018-04-27T22:58:06.169Z,7.10
2018-04-27T23:00:38.068Z,5.83
2018-04-27T23:03:22.581Z,4.97
2018-04-27T23:05:51.676Z,6.47
2018-04-27T23:08:19.965Z,6.57
2018-04-27T23:10:50.593Z,5.83
2018-04-27T23:13:19.702Z,5.90
2018-04-27T23:15:56.880Z,7.23
2018-04-27T23:18:25.162Z,6.30
2018-04-27T23:20:54.140Z,5.83
2018-04-27T23:23:22.433Z,6.23
2018-04-27T23:25:51.657Z,6.03
2018-04-27T23:28:20.629Z,6.43
2018-04-27T23:30:48.908Z,6.00
2018-04-27T23:33:17.185Z,7.37
2018-04-27T23:35:47.028Z,6.13
2018-04-27T23:38:15.296Z,4.80
2018-04-27T23:43:39.988Z,5.20
2018-04-27T23:46:08.247Z,5.43
2018-04-27T23:48:36.526Z,5.57
2018-04-27T23:51:05.532Z,7.13
2018-04-27T23:53:34.688Z,6.23
2018-04-27T23:56:02.972Z,5.60
2018-04-27T23:58:32.124Z,4.70
